sensor_id;sensor_type;location;lat;lon;timestamp;P1;durP1;ratioP1;P2;durP2;ratioP2
1380;SDS011;684;48.342;10.096;2023-08-06T00:01:59;7.70;;;5.03;;
1380;SDS011;684;48.342;10.096;2023-08-06T00:04:26;7.07;;;5.67;;
1380;SDS011;684;48.342;10.096;2023-08-06T00:06:52;11.87;;;5.50;;
1380;SDS011;684;48.342;10.096;2023-08-06T00:09:19;7.83;;;5.77;;
1380;SDS011;684;48.342;10.096;2023-08-06T00:11:47;7.57;;;5.83;;
1380;SDS011;684;48.342;10.096;2023-08-06T00:14:14;6.80;;;4.97;;
1380;SDS011;684;48.342;10.096;2023-08-06T00:16:42;8.37;;;5.83;;
1380;SDS011;684;48.342;10.096;2023-08-06T00:19:10;7.90;;;4.90;;
1380;SDS011;684;48.342;10.096;2023-08-06T00:21:37;7.20;;;5.40;;
1380;SDS011;684;48.342;10.096;2023-08-06T00:24:03;8.57;;;5.40;;
1380;SDS011;684;48.342;10.096;2023-08-06T00:26:30;9.43;;;4.87;;
1380;SDS011;684;48.342;10.096;2023-08-06T00:28:58;6.80;;;4.30;;
1380;SDS011;684;48.342;10.096;2023-08-06T00:31:25;12.70;;;4.97;;
1380;SDS011;684;48.342;10.096;2023-08-06T00:33:52;8.13;;;4.53;;
1380;SDS011;684;48.342;10.096;2023-08-06T00:36:18;9.57;;;3.43;;
1380;SDS011;684;48.342;10.096;2023-08-06T00:38:45;5.90;;;3.33;;
1380;SDS011;684;48.342;10.096;2023-08-06T00:41:12;6.37;;;4.00;;
1380;SDS011;684;48.342;10.096;2023-08-06T00:43:39;7.07;;;3.70;;
1380;SDS011;684;48.342;10.096;2023-08-06T00:46:07;8.70;;;3.37;;
1380;SDS011;684;48.342;10.096;2023-08-06T00:48:34;9.20;;;3.60;;
1380;SDS011;684;48.342;10.096;2023-08-06T00:51:01;6.80;;;3.37;;
1380;SDS011;684;48.342;10.096;2023-08-06T00:53:28;6.13;;;3.47;;
1380;SDS011;684;48.342;10.096;2023-08-06T00:55:55;6.53;;;3.60;;
1380;SDS011;684;48.342;10.096;2023-08-06T00:58:22;5.37;;;3.20;;
1380;SDS011;684;48.342;10.096;2023-08-06T01:00:48;6.63;;;3.30;;
1380;SDS011;684;48.342;10.096;2023-08-06T01:03:16;5.80;;;3.70;;
1380;SDS011;684;48.342;10.096;2023-08-06T01:05:43;7.80;;;3.30;;
1380;SDS011;684;48.342;10.096;2023-08-06T01:08:15;9.03;;;3.00;;
1380;SDS011;684;48.342;10.096;2023-08-06T01:10:51;6.70;;;3.30;;
1380;SDS011;684;48.342;10.096;2023-08-06T01:13:30;5.00;;;2.63;;
1380;SDS011;684;48.342;10.096;2023-08-06T01:15:59;5.53;;;3.10;;
1380;SDS011;684;48.342;10.096;2023-08-06T01:18:29;5.40;;;3.70;;
1380;SDS011;684;48.342;10.096;2023-08-06T01:20:57;7.77;;;3.30;;
1380;SDS011;684;48.342;10.096;2023-08-06T01:23:23;6.93;;;3.07;;
1380;SDS011;684;48.342;10.096;2023-08-06T01:25:53;6.10;;;3.23;;
1380;SDS011;684;48.342;10.096;2023-08-06T01:28:39;5.07;;;3.13;;
1380;SDS011;684;48.342;10.096;2023-08-06T01:31:13;5.60;;;3.30;;
1380;SDS011;684;48.342;10.096;2023-08-06T01:33:45;6.30;;;3.50;;
1380;SDS011;684;48.342;10.096;2023-08-06T01:36:15;6.63;;;3.43;;
1380;SDS011;684;48.342;10.096;2023-08-06T01:38:43;5.67;;;3.40;;
1380;SDS011;684;48.342;10.096;2023-08-06T01:41:10;5.30;;;3.57;;
1380;SDS011;684;48.342;10.096;2023-08-06T01:43:37;6.90;;;3.47;;
1380;SDS011;684;48.342;10.096;2023-08-06T01:46:04;5.30;;;3.40;;
1380;SDS011;684;48.342;10.096;2023-08-06T01:48:30;5.90;;;3.23;;
1380;SDS011;684;48.342;10.096;2023-08-06T01:50:57;7.20;;;3.40;;
1380;SDS011;684;48.342;10.096;2023-08-06T01:53:25;8.87;;;3.67;;
1380;SDS011;684;48.342;10.096;2023-08-06T01:55:52;7.27;;;3.37;;
1380;SDS011;684;48.342;10.096;2023-08-06T01:58:18;6.13;;;3.80;;
1380;SDS011;684;48.342;10.096;2023-08-06T02:00:45;5.83;;;3.50;;
1380;SDS011;684;48.342;10.096;2023-08-06T02:03:12;6.23;;;3.37;;
1380;SDS011;684;48.342;10.096;2023-08-06T02:05:39;7.13;;;4.43;;
1380;SDS011;684;48.342;10.096;2023-08-06T02:08:06;7.67;;;4.00;;
1380;SDS011;684;48.342;10.096;2023-08-06T02:10:34;9.23;;;3.53;;
1380;SDS011;684;48.342;10.096;2023-08-06T02:13:01;7.13;;;3.80;;
1380;SDS011;684;48.342;10.096;2023-08-06T02:15:27;8.83;;;4.30;;
1380;SDS011;684;48.342;10.096;2023-08-06T02:17:54;5.83;;;3.93;;
1380;SDS011;684;48.342;10.096;2023-08-06T02:20:21;9.60;;;4.03;;
1380;SDS011;684;48.342;10.096;2023-08-06T02:22:48;5.90;;;3.83;;
1380;SDS011;684;48.342;10.096;2023-08-06T02:25:14;6.30;;;4.13;;
1380;SDS011;684;48.342;10.096;2023-08-06T02:27:42;6.70;;;4.20;;
1380;SDS011;684;48.342;10.096;2023-08-06T02:30:09;6.43;;;4.50;;
1380;SDS011;684;48.342;10.096;2023-08-06T02:32:36;7.83;;;4.47;;
1380;SDS011;684;48.342;10.096;2023-08-06T02:35:03;7.00;;;4.43;;
1380;SDS011;684;48.342;10.096;2023-08-06T02:37:30;6.77;;;4.20;;
1380;SDS011;684;48.342;10.096;2023-08-06T02:39:58;6.60;;;4.27;;
1380;SDS011;684;48.342;10.096;2023-08-06T02:42:25;7.30;;;3.63;;
1380;SDS011;684;48.342;10.096;2023-08-06T02:44:54;6.63;;;3.77;;
1380;SDS011;684;48.342;10.096;2023-08-06T02:47:20;7.80;;;3.70;;
1380;SDS011;684;48.342;10.096;2023-08-06T02:49:48;8.00;;;4.10;;
1380;SDS011;684;48.342;10.096;2023-08-06T02:52:14;5.70;;;3.27;;
1380;SDS011;684;48.342;10.096;2023-08-06T02:54:41;6.80;;;3.80;;
1380;SDS011;684;48.342;10.096;2023-08-06T02:57:08;6.40;;;3.83;;
1380;SDS011;684;48.342;10.096;2023-08-06T02:59:35;6.73;;;3.63;;
1380;SDS011;684;48.342;10.096;2023-08-06T03:02:04;5.43;;;3.13;;
1380;SDS011;684;48.342;10.096;2023-08-06T03:04:31;6.40;;;3.80;;
1380;SDS011;684;48.342;10.096;2023-08-06T03:06:58;6.63;;;3.70;;
1380;SDS011;684;48.342;10.096;2023-08-06T03:09:24;6.90;;;3.27;;
1380;SDS011;684;48.342;10.096;2023-08-06T03:11:51;6.07;;;3.30;;
1380;SDS011;684;48.342;10.096;2023-08-06T03:14:18;6.80;;;3.40;;
1380;SDS011;684;48.342;10.096;2023-08-06T03:16:44;9.43;;;3.53;;
1380;SDS011;684;48.342;10.096;2023-08-06T03:19:12;7.00;;;3.40;;
1380;SDS011;684;48.342;10.096;2023-08-06T03:21:39;5.43;;;3.73;;
1380;SDS011;684;48.342;10.096;2023-08-06T03:24:06;5.77;;;3.50;;
1380;SDS011;684;48.342;10.096;2023-08-06T03:26:32;5.23;;;3.07;;
1380;SDS011;684;48.342;10.096;2023-08-06T03:28:59;5.90;;;3.43;;
1380;SDS011;684;48.342;10.096;2023-08-06T03:31:26;10.70;;;3.73;;
1380;SDS011;684;48.342;10.096;2023-08-06T03:33:52;5.73;;;3.33;;
1380;SDS011;684;48.342;10.096;2023-08-06T03:36:20;6.30;;;3.83;;
1380;SDS011;684;48.342;10.096;2023-08-06T03:38:47;7.17;;;3.63;;
1380;SDS011;684;48.342;10.096;2023-08-06T03:41:14;5.83;;;3.50;;
1380;SDS011;684;48.342;10.096;2023-08-06T03:43:41;6.73;;;3.17;;
1380;SDS011;684;48.342;10.096;2023-08-06T03:46:07;6.73;;;3.50;;
1380;SDS011;684;48.342;10.096;2023-08-06T03:48:34;6.70;;;3.40;;
1380;SDS011;684;48.342;10.096;2023-08-06T03:51:01;6.43;;;3.60;;
1380;SDS011;684;48.342;10.096;2023-08-06T03:53:29;9.50;;;4.40;;
1380;SDS011;684;48.342;10.096;2023-08-06T03:55:55;6.50;;;3.40;;
1380;SDS011;684;48.342;10.096;2023-08-06T03:58:25;5.50;;;3.53;;
1380;SDS011;684;48.342;10.096;2023-08-06T04:00:57;6.07;;;3.07;;
1380;SDS011;684;48.342;10.096;2023-08-06T04:03:24;6.90;;;3.77;;
1380;SDS011;684;48.342;10.096;2023-08-06T04:05:51;7.50;;;3.53;;
1380;SDS011;684;48.342;10.096;2023-08-06T04:08:17;8.17;;;3.77;;
1380;SDS011;684;48.342;10.096;2023-08-06T04:10:48;6.23;;;3.80;;
1380;SDS011;684;48.342;10.096;2023-08-06T04:13:15;7.50;;;4.00;;
1380;SDS011;684;48.342;10.096;2023-08-06T04:15:42;6.43;;;3.37;;
1380;SDS011;684;48.342;10.096;2023-08-06T04:18:09;6.73;;;4.13;;
1380;SDS011;684;48.342;10.096;2023-08-06T04:20:41;5.13;;;3.00;;
1380;SDS011;684;48.342;10.096;2023-08-06T04:23:09;6.40;;;3.43;;
1380;SDS011;684;48.342;10.096;2023-08-06T04:25:36;7.10;;;4.03;;
1380;SDS011;684;48.342;10.096;2023-08-06T04:28:04;6.40;;;3.20;;
1380;SDS011;684;48.342;10.096;2023-08-06T04:30:31;6.80;;;3.17;;
1380;SDS011;684;48.342;10.096;2023-08-06T04:32:57;6.60;;;3.20;;
1380;SDS011;684;48.342;10.096;2023-08-06T04:35:24;6.10;;;3.67;;
1380;SDS011;684;48.342;10.096;2023-08-06T04:37:51;7.17;;;3.00;;
1380;SDS011;684;48.342;10.096;2023-08-06T04:40:17;6.20;;;3.30;;
1380;SDS011;684;48.342;10.096;2023-08-06T04:42:44;7.57;;;3.73;;
1380;SDS011;684;48.342;10.096;2023-08-06T04:45:12;7.53;;;3.43;;
1380;SDS011;684;48.342;10.096;2023-08-06T04:47:39;7.13;;;3.57;;
1380;SDS011;684;48.342;10.096;2023-08-06T04:50:06;5.90;;;3.07;;
1380;SDS011;684;48.342;10.096;2023-08-06T04:52:33;6.90;;;4.13;;
1380;SDS011;684;48.342;10.096;2023-08-06T04:54:59;5.70;;;3.43;;
1380;SDS011;684;48.342;10.096;2023-08-06T04:57:26;5.93;;;3.37;;
1380;SDS011;684;48.342;10.096;2023-08-06T04:59:53;6.87;;;4.13;;
1380;SDS011;684;48.342;10.096;2023-08-06T05:02:21;6.20;;;3.40;;
1380;SDS011;684;48.342;10.096;2023-08-06T05:04:47;5.90;;;3.60;;
1380;SDS011;684;48.342;10.096;2023-08-06T05:07:14;6.10;;;4.07;;
1380;SDS011;684;48.342;10.096;2023-08-06T05:09:41;6.70;;;3.30;;
1380;SDS011;684;48.342;10.096;2023-08-06T05:12:08;7.70;;;3.10;;
1380;SDS011;684;48.342;10.096;2023-08-06T05:14:35;6.50;;;3.63;;
1380;SDS011;684;48.342;10.096;2023-08-06T05:17:02;6.07;;;3.23;;
1380;SDS011;684;48.342;10.096;2023-08-06T05:19:31;8.33;;;3.77;;
1380;SDS011;684;48.342;10.096;2023-08-06T05:21:57;6.10;;;3.27;;
1380;SDS011;684;48.342;10.096;2023-08-06T05:24:25;6.30;;;2.63;;
1380;SDS011;684;48.342;10.096;2023-08-06T05:26:52;5.80;;;3.30;;
1380;SDS011;684;48.342;10.096;2023-08-06T05:29:19;7.40;;;3.20;;
1380;SDS011;684;48.342;10.096;2023-08-06T05:31:45;8.80;;;3.20;;
1380;SDS011;684;48.342;10.096;2023-08-06T05:34:12;8.10;;;3.27;;
1380;SDS011;684;48.342;10.096;2023-08-06T05:36:40;5.90;;;3.60;;
1380;SDS011;684;48.342;10.096;2023-08-06T05:39:07;5.90;;;3.50;;
1380;SDS011;684;48.342;10.096;2023-08-06T05:41:33;7.10;;;3.20;;
1380;SDS011;684;48.342;10.096;2023-08-06T05:44:00;6.50;;;3.43;;
1380;SDS011;684;48.342;10.096;2023-08-06T05:46:27;5.50;;;2.90;;
1380;SDS011;684;48.342;10.096;2023-08-06T05:48:53;6.77;;;3.20;;
1380;SDS011;684;48.342;10.096;2023-08-06T05:51:20;7.47;;;2.33;;
1380;SDS011;684;48.342;10.096;2023-08-06T05:53:48;5.90;;;2.83;;
1380;SDS011;684;48.342;10.096;2023-08-06T05:56:15;4.27;;;2.10;;
1380;SDS011;684;48.342;10.096;2023-08-06T05:58:42;4.80;;;2.57;;
1380;SDS011;684;48.342;10.096;2023-08-06T06:01:08;5.10;;;2.70;;
1380;SDS011;684;48.342;10.096;2023-08-06T06:03:35;6.10;;;2.30;;
1380;SDS011;684;48.342;10.096;2023-08-06T06:06:02;4.80;;;2.07;;
1380;SDS011;684;48.342;10.096;2023-08-06T06:08:29;4.90;;;2.00;;
1380;SDS011;684;48.342;10.096;2023-08-06T06:10:57;4.40;;;1.93;;
1380;SDS011;684;48.342;10.096;2023-08-06T06:13:24;5.57;;;2.67;;
1380;SDS011;684;48.342;10.096;2023-08-06T06:15:53;4.37;;;2.00;;
1380;SDS011;684;48.342;10.096;2023-08-06T06:18:20;4.73;;;2.00;;
1380;SDS011;684;48.342;10.096;2023-08-06T06:20:47;4.43;;;1.57;;
1380;SDS011;684;48.342;10.096;2023-08-06T06:23:13;3.67;;;1.37;;
1380;SDS011;684;48.342;10.096;2023-08-06T06:25:41;4.13;;;1.60;;
1380;SDS011;684;48.342;10.096;2023-08-06T06:28:10;5.10;;;1.60;;
1380;SDS011;684;48.342;10.096;2023-08-06T06:30:36;8.43;;;1.80;;
1380;SDS011;684;48.342;10.096;2023-08-06T06:33:03;3.53;;;1.30;;
1380;SDS011;684;48.342;10.096;2023-08-06T06:35:30;4.43;;;1.77;;
1380;SDS011;684;48.342;10.096;2023-08-06T06:37:56;3.73;;;1.27;;
1380;SDS011;684;48.342;10.096;2023-08-06T06:40:23;3.30;;;1.10;;
1380;SDS011;684;48.342;10.096;2023-08-06T06:42:50;5.13;;;1.47;;
1380;SDS011;684;48.342;10.096;2023-08-06T06:45:18;4.47;;;1.23;;
1380;SDS011;684;48.342;10.096;2023-08-06T06:47:45;4.90;;;1.50;;
1380;SDS011;684;48.342;10.096;2023-08-06T06:50:12;4.60;;;1.50;;
1380;SDS011;684;48.342;10.096;2023-08-06T06:52:38;4.00;;;1.30;;
1380;SDS011;684;48.342;10.096;2023-08-06T06:55:05;4.00;;;1.50;;
1380;SDS011;684;48.342;10.096;2023-08-06T06:57:32;3.90;;;1.27;;
1380;SDS011;684;48.342;10.096;2023-08-06T06:59:59;5.10;;;1.60;;
1380;SDS011;684;48.342;10.096;2023-08-06T07:02:27;3.43;;;1.13;;
1380;SDS011;684;48.342;10.096;2023-08-06T07:04:53;5.00;;;1.00;;
1380;SDS011;684;48.342;10.096;2023-08-06T07:07:20;6.40;;;1.20;;
1380;SDS011;684;48.342;10.096;2023-08-06T07:09:47;3.87;;;1.10;;
1380;SDS011;684;48.342;10.096;2023-08-06T07:12:13;3.40;;;0.80;;
1380;SDS011;684;48.342;10.096;2023-08-06T07:14:40;4.27;;;1.00;;
1380;SDS011;684;48.342;10.096;2023-08-06T07:17:07;5.43;;;0.90;;
1380;SDS011;684;48.342;10.096;2023-08-06T07:19:35;4.17;;;1.00;;
1380;SDS011;684;48.342;10.096;2023-08-06T07:22:01;4.23;;;1.00;;
1380;SDS011;684;48.342;10.096;2023-08-06T07:24:28;8.10;;;1.27;;
1380;SDS011;684;48.342;10.096;2023-08-06T07:26:55;5.57;;;1.10;;
1380;SDS011;684;48.342;10.096;2023-08-06T07:29:22;3.80;;;1.00;;
1380;SDS011;684;48.342;10.096;2023-08-06T07:31:48;4.20;;;1.10;;
1380;SDS011;684;48.342;10.096;2023-08-06T07:34:15;4.30;;;0.90;;
1380;SDS011;684;48.342;10.096;2023-08-06T07:36:44;4.10;;;1.00;;
1380;SDS011;684;48.342;10.096;2023-08-06T07:39:11;3.33;;;0.80;;
1380;SDS011;684;48.342;10.096;2023-08-06T07:41:38;4.60;;;0.80;;
1380;SDS011;684;48.342;10.096;2023-08-06T07:44:06;3.97;;;0.77;;
1380;SDS011;684;48.342;10.096;2023-08-06T07:46:33;8.73;;;1.07;;
1380;SDS011;684;48.342;10.096;2023-08-06T07:48:59;3.43;;;0.87;;
1380;SDS011;684;48.342;10.096;2023-08-06T07:51:26;3.30;;;0.70;;
1380;SDS011;684;48.342;10.096;2023-08-06T07:53:54;3.20;;;0.90;;
1380;SDS011;684;48.342;10.096;2023-08-06T07:56:21;3.03;;;0.60;;
1380;SDS011;684;48.342;10.096;2023-08-06T07:58:47;4.70;;;0.97;;
1380;SDS011;684;48.342;10.096;2023-08-06T08:01:14;3.83;;;1.10;;
1380;SDS011;684;48.342;10.096;2023-08-06T08:03:41;3.50;;;0.80;;
1380;SDS011;684;48.342;10.096;2023-08-06T08:06:07;3.50;;;0.80;;
1380;SDS011;684;48.342;10.096;2023-08-06T08:08:34;3.30;;;0.60;;
1380;SDS011;684;48.342;10.096;2023-08-06T08:11:04;5.77;;;0.63;;
1380;SDS011;684;48.342;10.096;2023-08-06T08:13:32;4.87;;;1.10;;
1380;SDS011;684;48.342;10.096;2023-08-06T08:15:59;3.27;;;0.53;;
1380;SDS011;684;48.342;10.096;2023-08-06T08:21:36;4.10;;;0.70;;
1380;SDS011;684;48.342;10.096;2023-08-06T08:24:03;3.70;;;0.60;;
1380;SDS011;684;48.342;10.096;2023-08-06T08:26:32;3.13;;;0.60;;
1380;SDS011;684;48.342;10.096;2023-08-06T08:28:58;3.57;;;0.67;;
1380;SDS011;684;48.342;10.096;2023-08-06T08:31:25;2.80;;;0.40;;
1380;SDS011;684;48.342;10.096;2023-08-06T08:33:53;3.30;;;0.50;;
1380;SDS011;684;48.342;10.096;2023-08-06T08:36:20;2.70;;;0.40;;
1380;SDS011;684;48.342;10.096;2023-08-06T08:38:47;2.80;;;0.40;;
1380;SDS011;684;48.342;10.096;2023-08-06T08:41:18;4.20;;;0.40;;
1380;SDS011;684;48.342;10.096;2023-08-06T08:43:47;2.87;;;0.47;;
1380;SDS011;684;48.342;10.096;2023-08-06T08:46:16;2.90;;;0.40;;
1380;SDS011;684;48.342;10.096;2023-08-06T08:48:44;3.30;;;0.57;;
1380;SDS011;684;48.342;10.096;2023-08-06T08:51:11;3.10;;;0.40;;
1380;SDS011;684;48.342;10.096;2023-08-06T08:53:39;2.77;;;0.43;;
1380;SDS011;684;48.342;10.096;2023-08-06T08:56:07;2.90;;;0.30;;
1380;SDS011;684;48.342;10.096;2023-08-06T08:58:34;3.70;;;0.47;;
1380;SDS011;684;48.342;10.096;2023-08-06T09:01:02;3.43;;;0.53;;
1380;SDS011;684;48.342;10.096;2023-08-06T09:03:30;3.03;;;0.40;;
1380;SDS011;684;48.342;10.096;2023-08-06T09:05:57;3.37;;;0.50;;
1380;SDS011;684;48.342;10.096;2023-08-06T09:08:27;4.70;;;0.50;;
1380;SDS011;684;48.342;10.096;2023-08-06T09:10:59;3.10;;;0.50;;
1380;SDS011;684;48.342;10.096;2023-08-06T09:13:28;2.90;;;0.40;;
1380;SDS011;684;48.342;10.096;2023-08-06T09:15:54;5.43;;;0.40;;
1380;SDS011;684;48.342;10.096;2023-08-06T09:18:26;4.30;;;0.93;;
1380;SDS011;684;48.342;10.096;2023-08-06T09:20:53;4.13;;;0.60;;
1380;SDS011;684;48.342;10.096;2023-08-06T09:23:20;3.13;;;0.60;;
1380;SDS011;684;48.342;10.096;2023-08-06T09:25:53;3.00;;;0.60;;
1380;SDS011;684;48.342;10.096;2023-08-06T09:28:19;3.80;;;0.60;;
1380;SDS011;684;48.342;10.096;2023-08-06T09:30:47;2.90;;;0.50;;
1380;SDS011;684;48.342;10.096;2023-08-06T09:33:14;2.80;;;0.43;;
1380;SDS011;684;48.342;10.096;2023-08-06T09:35:46;3.83;;;0.63;;
1380;SDS011;684;48.342;10.096;2023-08-06T09:38:13;2.83;;;0.50;;
1380;SDS011;684;48.342;10.096;2023-08-06T09:40:40;3.00;;;0.50;;
1380;SDS011;684;48.342;10.096;2023-08-06T09:43:07;3.63;;;0.50;;
1380;SDS011;684;48.342;10.096;2023-08-06T09:45:34;3.53;;;0.40;;
1380;SDS011;684;48.342;10.096;2023-08-06T09:48:02;3.20;;;0.50;;
1380;SDS011;684;48.342;10.096;2023-08-06T09:50:30;6.17;;;2.70;;
1380;SDS011;684;48.342;10.096;2023-08-06T09:52:59;2.70;;;0.40;;
1380;SDS011;684;48.342;10.096;2023-08-06T09:55:27;3.77;;;1.00;;
1380;SDS011;684;48.342;10.096;2023-08-06T09:57:53;3.33;;;0.80;;
1380;SDS011;684;48.342;10.096;2023-08-06T10:00:21;2.87;;;0.50;;
1380;SDS011;684;48.342;10.096;2023-08-06T10:02:48;3.10;;;0.50;;
1380;SDS011;684;48.342;10.096;2023-08-06T10:05:19;3.47;;;0.90;;
1380;SDS011;684;48.342;10.096;2023-08-06T10:07:46;4.40;;;1.53;;
1380;SDS011;684;48.342;10.096;2023-08-06T10:10:17;3.20;;;0.70;;
1380;SDS011;684;48.342;10.096;2023-08-06T10:12:45;2.90;;;0.50;;
1380;SDS011;684;48.342;10.096;2023-08-06T10:15:15;2.80;;;0.40;;
1380;SDS011;684;48.342;10.096;2023-08-06T10:17:46;3.23;;;0.63;;
1380;SDS011;684;48.342;10.096;2023-08-06T10:20:16;3.57;;;0.83;;
1380;SDS011;684;48.342;10.096;2023-08-06T10:22:43;2.80;;;0.40;;
1380;SDS011;684;48.342;10.096;2023-08-06T10:25:10;3.17;;;0.63;;
1380;SDS011;684;48.342;10.096;2023-08-06T10:27:54;4.13;;;0.40;;
1380;SDS011;684;48.342;10.096;2023-08-06T10:30:21;3.00;;;0.43;;
1380;SDS011;684;48.342;10.096;2023-08-06T10:32:52;3.73;;;0.70;;
1380;SDS011;684;48.342;10.096;2023-08-06T10:35:28;2.70;;;0.40;;
1380;SDS011;684;48.342;10.096;2023-08-06T10:38:04;2.90;;;0.53;;
1380;SDS011;684;48.342;10.096;2023-08-06T10:40:33;2.97;;;0.60;;
1380;SDS011;684;48.342;10.096;2023-08-06T10:43:02;3.50;;;0.60;;
1380;SDS011;684;48.342;10.096;2023-08-06T10:45:33;2.70;;;0.30;;
1380;SDS011;684;48.342;10.096;2023-08-06T10:48:01;2.97;;;0.50;;
1380;SDS011;684;48.342;10.096;2023-08-06T10:50:28;3.67;;;0.50;;
1380;SDS011;684;48.342;10.096;2023-08-06T10:52:56;2.60;;;0.30;;
1380;SDS011;684;48.342;10.096;2023-08-06T10:55:24;2.63;;;0.30;;
1380;SDS011;684;48.342;10.096;2023-08-06T10:57:52;3.30;;;0.40;;
1380;SDS011;684;48.342;10.096;2023-08-06T11:00:21;3.20;;;0.60;;
1380;SDS011;684;48.342;10.096;2023-08-06T11:02:49;2.83;;;0.40;;
1380;SDS011;684;48.342;10.096;2023-08-06T11:05:15;2.80;;;0.50;;
1380;SDS011;684;48.342;10.096;2023-08-06T11:07:43;2.87;;;0.60;;
1380;SDS011;684;48.342;10.096;2023-08-06T11:10:10;2.80;;;0.60;;
1380;SDS011;684;48.342;10.096;2023-08-06T11:12:38;3.27;;;0.60;;
1380;SDS011;684;48.342;10.096;2023-08-06T11:15:05;3.43;;;0.77;;
1380;SDS011;684;48.342;10.096;2023-08-06T11:17:34;3.10;;;0.70;;
1380;SDS011;684;48.342;10.096;2023-08-06T11:20:02;3.13;;;0.47;;
1380;SDS011;684;48.342;10.096;2023-08-06T11:22:29;3.23;;;0.90;;
1380;SDS011;684;48.342;10.096;2023-08-06T11:24:56;3.80;;;0.60;;
1380;SDS011;684;48.342;10.096;2023-08-06T11:27:25;3.53;;;0.43;;
1380;SDS011;684;48.342;10.096;2023-08-06T11:29:53;2.93;;;0.40;;
1380;SDS011;684;48.342;10.096;2023-08-06T11:32:19;2.87;;;0.50;;
1380;SDS011;684;48.342;10.096;2023-08-06T11:34:47;2.97;;;0.70;;
1380;SDS011;684;48.342;10.096;2023-08-06T11:37:14;3.93;;;1.03;;
1380;SDS011;684;48.342;10.096;2023-08-06T11:39:44;3.37;;;1.33;;
1380;SDS011;684;48.342;10.096;2023-08-06T11:42:12;4.30;;;1.50;;
1380;SDS011;684;48.342;10.096;2023-08-06T11:44:40;2.93;;;0.70;;
1380;SDS011;684;48.342;10.096;2023-08-06T11:47:11;3.70;;;0.77;;
1380;SDS011;684;48.342;10.096;2023-08-06T11:49:39;4.13;;;0.90;;
1380;SDS011;684;48.342;10.096;2023-08-06T11:52:20;3.77;;;0.43;;
1380;SDS011;684;48.342;10.096;2023-08-06T11:54:59;3.63;;;0.50;;
1380;SDS011;684;48.342;10.096;2023-08-06T11:57:28;2.77;;;0.43;;
1380;SDS011;684;48.342;10.096;2023-08-06T11:59:57;3.70;;;0.50;;
1380;SDS011;684;48.342;10.096;2023-08-06T12:02:27;4.13;;;0.63;;
1380;SDS011;684;48.342;10.096;2023-08-06T12:05:00;2.90;;;0.50;;
1380;SDS011;684;48.342;10.096;2023-08-06T12:07:29;3.30;;;0.63;;
1380;SDS011;684;48.342;10.096;2023-08-06T12:09:57;2.80;;;0.50;;
1380;SDS011;684;48.342;10.096;2023-08-06T12:12:24;5.20;;;0.57;;
1380;SDS011;684;48.342;10.096;2023-08-06T12:14:51;3.77;;;0.70;;
1380;SDS011;684;48.342;10.096;2023-08-06T12:17:18;2.80;;;0.60;;
1380;SDS011;684;48.342;10.096;2023-08-06T12:19:45;2.67;;;0.30;;
1380;SDS011;684;48.342;10.096;2023-08-06T12:22:13;3.20;;;0.47;;
1380;SDS011;684;48.342;10.096;2023-08-06T12:24:41;3.00;;;0.50;;
1380;SDS011;684;48.342;10.096;2023-08-06T12:27:09;2.70;;;0.40;;
1380;SDS011;684;48.342;10.096;2023-08-06T12:29:36;2.63;;;0.23;;
1380;SDS011;684;48.342;10.096;2023-08-06T12:32:03;3.30;;;0.37;;
1380;SDS011;684;48.342;10.096;2023-08-06T12:34:31;3.43;;;0.30;;
1380;SDS011;684;48.342;10.096;2023-08-06T12:36:57;2.70;;;0.30;;
1380;SDS011;684;48.342;10.096;2023-08-06T12:39:24;2.67;;;0.40;;
1380;SDS011;684;48.342;10.096;2023-08-06T12:41:54;2.70;;;0.40;;
1380;SDS011;684;48.342;10.096;2023-08-06T12:44:22;4.93;;;0.40;;
1380;SDS011;684;48.342;10.096;2023-08-06T12:46:49;2.60;;;0.30;;
1380;SDS011;684;48.342;10.096;2023-08-06T12:49:16;2.70;;;0.40;;
1380;SDS011;684;48.342;10.096;2023-08-06T12:51:42;2.70;;;0.33;;
1380;SDS011;684;48.342;10.096;2023-08-06T12:54:09;3.00;;;0.40;;
1380;SDS011;684;48.342;10.096;2023-08-06T12:56:36;3.20;;;0.30;;
1380;SDS011;684;48.342;10.096;2023-08-06T12:59:04;2.80;;;0.30;;
1380;SDS011;684;48.342;10.096;2023-08-06T13:01:31;2.80;;;0.40;;
1380;SDS011;684;48.342;10.096;2023-08-06T13:03:57;2.60;;;0.30;;
1380;SDS011;684;48.342;10.096;2023-08-06T13:06:25;3.43;;;0.40;;
1380;SDS011;684;48.342;10.096;2023-08-06T13:08:52;3.37;;;0.30;;
1380;SDS011;684;48.342;10.096;2023-08-06T13:11:19;2.80;;;0.40;;
1380;SDS011;684;48.342;10.096;2023-08-06T13:13:46;2.80;;;0.40;;
1380;SDS011;684;48.342;10.096;2023-08-06T13:16:14;5.37;;;0.60;;
1380;SDS011;684;48.342;10.096;2023-08-06T13:18:41;2.80;;;0.63;;
1380;SDS011;684;48.342;10.096;2023-08-06T13:21:08;2.80;;;0.50;;
1380;SDS011;684;48.342;10.096;2023-08-06T13:23:34;2.73;;;0.40;;
1380;SDS011;684;48.342;10.096;2023-08-06T13:26:01;4.17;;;0.50;;
1380;SDS011;684;48.342;10.096;2023-08-06T13:28:28;3.80;;;0.70;;
1380;SDS011;684;48.342;10.096;2023-08-06T13:30:55;3.67;;;0.50;;
1380;SDS011;684;48.342;10.096;2023-08-06T13:33:23;3.00;;;0.40;;
1380;SDS011;684;48.342;10.096;2023-08-06T13:35:51;3.13;;;0.60;;
1380;SDS011;684;48.342;10.096;2023-08-06T13:38:18;4.10;;;0.60;;
1380;SDS011;684;48.342;10.096;2023-08-06T13:40:45;3.47;;;0.40;;
1380;SDS011;684;48.342;10.096;2023-08-06T13:43:12;3.00;;;0.50;;
1380;SDS011;684;48.342;10.096;2023-08-06T13:45:40;4.23;;;2.43;;
1380;SDS011;684;48.342;10.096;2023-08-06T13:48:07;5.00;;;1.53;;
1380;SDS011;684;48.342;10.096;2023-08-06T13:50:37;2.80;;;0.50;;
1380;SDS011;684;48.342;10.096;2023-08-06T13:53:03;3.10;;;0.67;;
1380;SDS011;684;48.342;10.096;2023-08-06T13:55:30;3.00;;;0.40;;
1380;SDS011;684;48.342;10.096;2023-08-06T13:57:57;3.73;;;0.70;;
1380;SDS011;684;48.342;10.096;2023-08-06T14:00:23;3.00;;;0.50;;
1380;SDS011;684;48.342;10.096;2023-08-06T14:02:50;3.00;;;0.60;;
1380;SDS011;684;48.342;10.096;2023-08-06T14:05:17;3.00;;;0.60;;
1380;SDS011;684;48.342;10.096;2023-08-06T14:07:45;2.80;;;0.50;;
1380;SDS011;684;48.342;10.096;2023-08-06T14:10:12;3.20;;;0.60;;
1380;SDS011;684;48.342;10.096;2023-08-06T14:12:39;3.43;;;0.60;;
1380;SDS011;684;48.342;10.096;2023-08-06T14:15:06;3.00;;;0.50;;
1380;SDS011;684;48.342;10.096;2023-08-06T14:17:34;2.90;;;0.60;;
1380;SDS011;684;48.342;10.096;2023-08-06T14:20:01;2.97;;;0.60;;
1380;SDS011;684;48.342;10.096;2023-08-06T14:22:29;2.87;;;0.63;;
1380;SDS011;684;48.342;10.096;2023-08-06T14:24:57;4.03;;;0.70;;
1380;SDS011;684;48.342;10.096;2023-08-06T14:27:24;22.47;;;1.63;;
1380;SDS011;684;48.342;10.096;2023-08-06T14:29:51;3.00;;;0.60;;
1380;SDS011;684;48.342;10.096;2023-08-06T14:32:18;3.00;;;0.60;;
1380;SDS011;684;48.342;10.096;2023-08-06T14:34:46;2.90;;;0.50;;
1380;SDS011;684;48.342;10.096;2023-08-06T14:37:13;3.30;;;0.87;;
1380;SDS011;684;48.342;10.096;2023-08-06T14:39:40;3.07;;;0.50;;
1380;SDS011;684;48.342;10.096;2023-08-06T14:42:08;3.40;;;0.60;;
1380;SDS011;684;48.342;10.096;2023-08-06T14:44:35;3.60;;;1.20;;
1380;SDS011;684;48.342;10.096;2023-08-06T14:47:01;3.73;;;0.50;;
1380;SDS011;684;48.342;10.096;2023-08-06T14:49:28;3.10;;;0.70;;
1380;SDS011;684;48.342;10.096;2023-08-06T14:51:55;3.67;;;0.63;;
1380;SDS011;684;48.342;10.096;2023-08-06T14:54:24;3.13;;;0.83;;
1380;SDS011;684;48.342;10.096;2023-08-06T14:56:51;3.07;;;0.63;;
1380;SDS011;684;48.342;10.096;2023-08-06T14:59:19;2.90;;;0.60;;
1380;SDS011;684;48.342;10.096;2023-08-06T15:01:45;3.07;;;0.73;;
1380;SDS011;684;48.342;10.096;2023-08-06T15:04:12;2.80;;;0.57;;
1380;SDS011;684;48.342;10.096;2023-08-06T15:06:39;3.40;;;0.80;;
1380;SDS011;684;48.342;10.096;2023-08-06T15:09:06;2.70;;;0.40;;
1380;SDS011;684;48.342;10.096;2023-08-06T15:11:33;2.80;;;0.40;;
1380;SDS011;684;48.342;10.096;2023-08-06T15:14:00;2.70;;;0.40;;
1380;SDS011;684;48.342;10.096;2023-08-06T15:16:30;2.80;;;0.53;;
1380;SDS011;684;48.342;10.096;2023-08-06T15:18:59;2.80;;;0.40;;
1380;SDS011;684;48.342;10.096;2023-08-06T15:21:25;2.70;;;0.40;;